Impacts TAF Board
For situational awareness. Not to be used for flight planning purposes.
IDs:

KISP - Islip/Macarthur Arpt, NY, US

Issued at 0821 UTC 13 Aug 2022
Updated at 0959 UTC 13 Aug 2022
Potential Impact None Slight Moderate High
Time0956Z 13/10Z 13/11Z 13/12Z 13/13Z 13/14Z 13/15Z 13/16Z 13/17Z 13/18Z 13/19Z 13/20Z 13/21Z 13/22Z>>
Type OBS PRVL PRVL PRVL PRVL PRVL PRVL PRVL PRVL PRVL PRVL PRVL PRVL PRVL
VIS 10 >6 >6 >6 >6 >6 >6 >6 >6 >6 >6 >6 >6 >6
CIG -- -- -- -- -- -- -- -- -- -- -- -- -- --
Cover SCT SKC SKC SKC SKC SKC SKC SKC SKC SKC SKC SCT SCT SCT
FltCat VFR VFR VFR VFR VFR VFR VFR VFR VFR VFR VFR VFR VFR VFR
WX -- -- -- -- -- -- -- -- -- -- -- -- -- --
WDir 360 350 350 350 350 10 10 10 10 10 10 170 170 170
WSpd 7 6 6 6 6 10 10 10 10 10 10 10 10 10
WGst -- -- -- -- -- -- -- -- -- -- -- -- -- --
WSHgt -- -- -- -- -- -- -- -- -- -- -- -- -- --
WSDir -- -- -- -- -- -- -- -- -- -- -- -- -- --
WSSpd -- -- -- -- -- -- -- -- -- -- -- -- -- --
Raw TAF
KISP 130821Z 1308/1406 35006KT P6SM SKC
  FM131400 01010KT P6SM SKC
  FM132000 17010KT P6SM SCT060
  FM140100 20005KT P6SM SKC


Raw METAR
KISP 130956Z 36007KT 10SM SCT250 18/12 A3006 RMK AO2 SLP177 T01780122
KISP 130856Z AUTO 01007KT 10SM CLR 18/12 A3005 RMK AO2 SLP175 T01830122 53004
KISP 130756Z AUTO 35006KT 10SM CLR 18/11 A3004 RMK AO2 SLP173 T01830111
KISP 130656Z AUTO 34005KT 10SM CLR 19/11 A3003 RMK AO2 SLP168 T01890106

METAR Board
Radar Display
Forecast Discussion
For situational awareness. Not to be used for flight planning purposes.